createdAt,value
2019-02-22T00:00:08.600Z,99.90
2019-02-22T00:01:24.129Z,99.90
2019-02-22T00:02:34.659Z,99.90
2019-02-22T00:03:39.251Z,99.90
2019-02-22T00:04:43.889Z,99.90
2019-02-22T00:05:48.516Z,99.90
2019-02-22T00:06:53.341Z,99.90
2019-02-22T00:07:57.948Z,99.90
2019-02-22T00:09:02.743Z,99.90
2019-02-22T00:10:09.237Z,99.90
2019-02-22T00:11:13.891Z,99.90
2019-02-22T00:12:18.477Z,99.90
2019-02-22T00:13:23.048Z,99.90
2019-02-22T00:14:27.662Z,99.90
2019-02-22T00:15:32.391Z,99.90
2019-02-22T00:16:37.104Z,99.90
2019-02-22T00:17:41.743Z,99.90
2019-02-22T00:18:46.305Z,99.90
2019-02-22T00:19:50.894Z,99.90
2019-02-22T00:20:57.748Z,99.90
2019-02-22T00:22:02.350Z,99.90
2019-02-22T00:23:07.008Z,99.90
2019-02-22T00:24:11.679Z,99.90
2019-02-22T00:25:16.269Z,99.90
2019-02-22T00:26:20.851Z,99.90
2019-02-22T00:27:25.469Z,99.90
2019-02-22T00:28:30.055Z,99.90
2019-02-22T00:29:34.650Z,99.90
2019-02-22T00:30:39.370Z,99.90
2019-02-22T00:31:43.985Z,99.90
2019-02-22T00:32:48.552Z,99.90
2019-02-22T00:33:53.177Z,99.90
2019-02-22T00:34:57.738Z,99.90
2019-02-22T00:36:02.359Z,99.90
2019-02-22T00:37:07.002Z,99.90
2019-02-22T00:38:12.184Z,99.90
2019-02-22T00:39:16.797Z,99.90
2019-02-22T00:40:21.525Z,99.90
2019-02-22T00:41:26.189Z,99.90
2019-02-22T00:42:30.760Z,99.90
2019-02-22T00:43:35.337Z,99.90
2019-02-22T00:44:39.922Z,99.90
2019-02-22T00:45:44.494Z,99.90
2019-02-22T00:46:49.245Z,99.90
2019-02-22T00:47:53.869Z,99.90
2019-02-22T00:48:58.543Z,99.90
2019-02-22T00:50:03.166Z,99.90
2019-02-22T00:51:07.751Z,99.90
2019-02-22T00:52:12.326Z,99.90
2019-02-22T00:53:16.902Z,99.90
2019-02-22T00:54:21.512Z,99.90
2019-02-22T00:55:26.097Z,99.90
2019-02-22T00:56:30.703Z,99.90
2019-02-22T00:57:35.272Z,99.90
2019-02-22T00:58:39.857Z,99.90
2019-02-22T00:59:44.430Z,99.90
2019-02-22T01:00:48.971Z,99.90
2019-02-22T01:01:54.539Z,99.90
2019-02-22T01:02:59.226Z,99.90
2019-02-22T01:04:07.108Z,99.90
2019-02-22T01:05:11.694Z,99.90
2019-02-22T01:06:16.256Z,99.90
2019-02-22T01:07:20.870Z,99.90
2019-02-22T01:08:25.477Z,99.90
2019-02-22T01:09:30.002Z,99.90
2019-02-22T01:10:34.614Z,99.90
2019-02-22T01:11:39.224Z,99.90
2019-02-22T01:12:43.800Z,99.90
2019-02-22T01:13:49.377Z,99.90
2019-02-22T01:15:13.177Z,99.90
2019-02-22T01:16:17.835Z,99.90
2019-02-22T01:17:22.453Z,99.90
2019-02-22T01:18:27.029Z,99.90
2019-02-22T01:19:31.595Z,99.90
2019-02-22T01:20:36.216Z,99.90
2019-02-22T01:21:40.831Z,99.90
2019-02-22T01:22:45.416Z,99.90
2019-02-22T01:23:50.011Z,99.90
2019-02-22T01:24:54.672Z,99.90
2019-02-22T01:25:59.261Z,99.90
2019-02-22T01:27:03.876Z,99.90
2019-02-22T01:28:08.481Z,99.90
2019-02-22T01:29:13.055Z,99.90
2019-02-22T01:30:17.697Z,99.90
2019-02-22T01:31:22.302Z,99.90
2019-02-22T01:32:26.884Z,99.90
2019-02-22T01:33:31.444Z,99.90
2019-02-22T01:34:36.237Z,99.90
2019-02-22T01:35:40.852Z,99.90
2019-02-22T01:36:45.438Z,99.90
2019-02-22T01:37:50.035Z,99.90
2019-02-22T01:38:54.664Z,99.90
2019-02-22T01:39:59.283Z,99.90
2019-02-22T01:41:03.936Z,99.90
2019-02-22T01:42:08.543Z,99.90
2019-02-22T01:43:13.126Z,99.90
2019-02-22T01:44:20.105Z,99.90
2019-02-22T01:45:26.783Z,99.90
2019-02-22T01:46:31.080Z,99.90
2019-02-22T01:47:35.687Z,99.90
2019-02-22T01:48:40.284Z,99.90
2019-02-22T01:49:44.836Z,99.90
2019-02-22T01:50:49.525Z,99.90
2019-02-22T01:51:54.230Z,99.90
2019-02-22T01:52:58.861Z,99.90
2019-02-22T01:54:03.504Z,99.90
2019-02-22T01:55:08.238Z,99.90
2019-02-22T01:56:12.827Z,99.90
2019-02-22T01:57:17.420Z,99.90
2019-02-22T01:58:48.233Z,99.90
2019-02-22T01:59:47.620Z,99.90
2019-02-22T02:00:52.311Z,99.90
2019-02-22T02:01:56.897Z,99.90
2019-02-22T02:03:01.625Z,99.90
2019-02-22T02:04:06.219Z,99.90
2019-02-22T02:05:10.892Z,99.90
2019-02-22T02:06:15.461Z,99.90
2019-02-22T02:07:20.210Z,99.90
2019-02-22T02:08:24.797Z,99.90
2019-02-22T02:09:29.402Z,99.90
2019-02-22T02:10:33.998Z,99.90
2019-02-22T02:11:38.774Z,99.90
2019-02-22T02:12:43.411Z,99.90
2019-02-22T02:13:48.000Z,99.90
2019-02-22T02:14:52.628Z,99.90
2019-02-22T02:15:57.200Z,99.90
2019-02-22T02:17:01.823Z,99.90
2019-02-22T02:18:06.379Z,99.90
2019-02-22T02:19:10.956Z,99.90
2019-02-22T02:20:15.687Z,99.90
2019-02-22T02:21:20.481Z,99.90
2019-02-22T02:22:25.158Z,99.90
2019-02-22T02:23:29.713Z,99.90
2019-02-22T02:24:34.305Z,99.90
2019-02-22T02:25:38.917Z,99.90
2019-02-22T02:26:43.499Z,99.90
2019-02-22T02:27:48.249Z,99.90
2019-02-22T02:28:52.892Z,99.90
2019-02-22T02:29:57.480Z,99.90
2019-02-22T02:31:02.065Z,99.90
2019-02-22T02:32:06.779Z,99.90
2019-02-22T02:33:11.374Z,99.90
2019-02-22T02:34:15.979Z,99.90
2019-02-22T02:35:21.550Z,99.90
2019-02-22T02:36:26.230Z,99.90
2019-02-22T02:37:30.835Z,99.90
2019-02-22T02:38:35.533Z,99.90
2019-02-22T02:39:43.836Z,99.90
2019-02-22T02:40:48.420Z,99.90
2019-02-22T02:41:53.011Z,99.90
2019-02-22T02:42:57.638Z,99.90
2019-02-22T02:44:02.229Z,99.90
2019-02-22T02:45:07.183Z,99.90
2019-02-22T02:46:11.766Z,99.90
2019-02-22T02:47:16.364Z,99.90
2019-02-22T02:48:20.931Z,99.90
2019-02-22T02:49:25.547Z,99.90
2019-02-22T02:50:30.194Z,99.90
2019-02-22T02:51:34.781Z,99.90
2019-02-22T02:52:39.455Z,99.90
2019-02-22T02:53:44.143Z,99.90
2019-02-22T02:54:49.699Z,99.90
2019-02-22T02:55:54.296Z,99.90
2019-02-22T02:56:58.952Z,99.90
2019-02-22T02:58:03.579Z,99.90
2019-02-22T02:59:08.242Z,99.90
2019-02-22T03:00:12.876Z,99.90
2019-02-22T03:01:17.468Z,99.90
2019-02-22T03:02:29.515Z,99.90
2019-02-22T03:03:34.158Z,99.90
2019-02-22T03:04:38.867Z,99.90
2019-02-22T03:05:59.467Z,99.90
2019-02-22T03:07:12.632Z,99.90
2019-02-22T03:08:17.206Z,99.90
2019-02-22T03:09:21.811Z,99.90
2019-02-22T03:10:26.363Z,99.90
2019-02-22T03:11:31.000Z,99.90
2019-02-22T03:12:35.582Z,99.90
2019-02-22T03:13:40.199Z,99.90
2019-02-22T03:14:44.734Z,99.90
2019-02-22T03:15:49.296Z,99.90
2019-02-22T03:16:53.863Z,99.90
2019-02-22T03:17:58.454Z,99.90
2019-02-22T03:19:04.040Z,99.90
2019-02-22T03:20:08.904Z,99.90
2019-02-22T03:21:13.451Z,99.90
2019-02-22T03:22:18.005Z,99.90
2019-02-22T03:23:22.558Z,99.90
2019-02-22T03:24:27.154Z,99.90
2019-02-22T03:25:31.801Z,99.90
2019-02-22T03:26:36.399Z,99.90
2019-02-22T03:27:40.949Z,99.90
2019-02-22T03:28:45.568Z,99.90
2019-02-22T03:29:50.127Z,99.90
2019-02-22T03:30:54.743Z,99.90
2019-02-22T03:31:59.329Z,99.90
2019-02-22T03:33:03.913Z,99.90
2019-02-22T03:34:08.502Z,99.90
2019-02-22T03:35:13.168Z,99.90
2019-02-22T03:36:17.745Z,99.90
2019-02-22T03:37:22.313Z,99.90
2019-02-22T03:38:26.914Z,99.90
2019-02-22T03:39:31.547Z,99.90
2019-02-22T03:40:36.153Z,99.90
2019-02-22T03:41:40.772Z,99.90
2019-02-22T03:42:45.415Z,99.90
2019-02-22T03:43:50.008Z,99.90
2019-02-22T03:44:54.638Z,99.90
2019-02-22T03:45:59.234Z,99.90
2019-02-22T03:47:03.819Z,99.90
2019-02-22T03:48:08.387Z,99.90
2019-02-22T03:49:12.954Z,99.90
2019-02-22T03:50:21.386Z,99.90
2019-02-22T03:51:26.351Z,99.90
2019-02-22T03:52:41.068Z,99.90
2019-02-22T03:53:52.241Z,99.90
2019-02-22T03:54:57.028Z,99.90
2019-02-22T03:56:01.672Z,99.90
2019-02-22T03:57:06.228Z,99.90
2019-02-22T03:58:10.897Z,99.90
2019-02-22T03:59:15.489Z,99.90
2019-02-22T04:00:20.063Z,99.90
2019-02-22T04:01:24.789Z,99.90
2019-02-22T04:02:29.496Z,99.90
2019-02-22T04:03:34.066Z,99.90
2019-02-22T04:04:38.724Z,99.90
2019-02-22T04:05:43.339Z,99.90
2019-02-22T04:06:47.899Z,99.90
2019-02-22T04:07:52.447Z,99.90
2019-02-22T04:08:57.028Z,99.90
2019-02-22T04:10:02.907Z,99.90
2019-02-22T04:11:07.516Z,99.90
2019-02-22T04:12:12.203Z,99.90
2019-02-22T04:13:16.843Z,99.90
2019-02-22T04:14:21.443Z,99.90
2019-02-22T04:15:26.006Z,99.90
2019-02-22T04:16:30.624Z,99.90
2019-02-22T04:17:35.218Z,99.90
2019-02-22T04:18:39.804Z,99.90
2019-02-22T04:19:44.355Z,99.90
2019-02-22T04:20:48.986Z,99.90
2019-02-22T04:21:53.571Z,99.90
2019-02-22T04:22:58.196Z,99.90
2019-02-22T04:24:02.802Z,99.90
2019-02-22T04:25:07.464Z,99.90
2019-02-22T04:26:12.108Z,99.90
2019-02-22T04:27:16.680Z,99.90
2019-02-22T04:28:21.305Z,99.90
2019-02-22T04:29:25.970Z,99.90
2019-02-22T04:30:30.536Z,99.90
2019-02-22T04:31:35.229Z,99.90
2019-02-22T04:32:39.936Z,99.90
2019-02-22T04:33:44.571Z,99.90
2019-02-22T04:34:49.160Z,99.90
2019-02-22T04:35:53.817Z,99.90
2019-02-22T04:36:58.388Z,99.90
2019-02-22T04:38:03.028Z,99.90
2019-02-22T04:39:07.718Z,99.90
2019-02-22T04:40:12.362Z,99.90
2019-02-22T04:41:17.001Z,99.90
2019-02-22T04:42:21.642Z,99.90
2019-02-22T04:43:26.251Z,99.90
2019-02-22T04:44:30.824Z,99.90
2019-02-22T04:45:35.432Z,99.90
2019-02-22T04:46:40.021Z,99.90
2019-02-22T04:47:44.595Z,99.90
2019-02-22T04:48:52.943Z,99.90
2019-02-22T04:49:57.507Z,99.90
2019-02-22T04:51:02.088Z,99.90
2019-02-22T04:52:12.083Z,99.90
2019-02-22T04:53:16.669Z,99.90
2019-02-22T04:54:21.289Z,99.90
2019-02-22T04:55:25.940Z,99.90
2019-02-22T04:56:30.576Z,99.90
2019-02-22T04:57:35.287Z,99.90
2019-02-22T04:58:39.892Z,99.90
2019-02-22T04:59:44.550Z,99.90
2019-02-22T05:00:49.248Z,99.90
2019-02-22T05:01:53.840Z,99.90
2019-02-22T05:02:58.441Z,99.90
2019-02-22T05:04:03.034Z,99.90
2019-02-22T05:05:08.058Z,99.90
2019-02-22T05:06:12.649Z,99.90
2019-02-22T05:07:18.449Z,99.90
2019-02-22T05:08:23.773Z,99.90
2019-02-22T05:09:28.432Z,99.90
2019-02-22T05:10:33.099Z,99.90
2019-02-22T05:11:39.348Z,99.90
2019-02-22T05:12:43.985Z,99.90
2019-02-22T05:13:48.763Z,99.90
2019-02-22T05:14:53.901Z,99.90
2019-02-22T05:15:58.548Z,99.90
2019-02-22T05:17:03.151Z,99.90
2019-02-22T05:18:07.794Z,99.90
2019-02-22T05:19:13.381Z,99.90
2019-02-22T05:20:17.994Z,99.90
2019-02-22T05:21:22.639Z,99.90
2019-02-22T05:22:27.352Z,99.90
2019-02-22T05:23:31.968Z,99.90
2019-02-22T05:24:36.624Z,99.90
2019-02-22T05:25:41.199Z,99.90
2019-02-22T05:26:45.863Z,99.90
2019-02-22T05:27:50.416Z,99.90
2019-02-22T05:28:55.023Z,99.90
2019-02-22T05:29:59.606Z,99.90
2019-02-22T05:31:04.173Z,99.90
2019-02-22T05:32:09.118Z,99.90
2019-02-22T05:33:14.186Z,99.90
2019-02-22T05:34:19.161Z,99.90
2019-02-22T05:35:24.299Z,99.90
2019-02-22T05:36:29.008Z,99.90
2019-02-22T05:37:33.919Z,99.90
2019-02-22T05:38:39.208Z,99.90
2019-02-22T05:39:43.879Z,99.90
2019-02-22T05:40:48.484Z,99.90
2019-02-22T05:41:53.215Z,99.90
2019-02-22T05:42:57.829Z,99.90
2019-02-22T05:44:02.443Z,99.90
2019-02-22T05:45:07.218Z,99.90
2019-02-22T05:46:11.837Z,99.90
2019-02-22T05:47:16.642Z,99.90
2019-02-22T05:48:21.464Z,99.90
2019-02-22T05:49:26.117Z,99.90
2019-02-22T05:50:30.928Z,99.90
2019-02-22T05:51:35.515Z,99.90
2019-02-22T05:52:40.190Z,99.90
2019-02-22T05:53:44.809Z,99.90
2019-02-22T05:54:49.411Z,99.90
2019-02-22T05:55:54.135Z,99.90
2019-02-22T05:56:58.864Z,99.90
2019-02-22T05:58:03.654Z,99.90
2019-02-22T05:59:08.555Z,99.90
2019-02-22T06:00:14.227Z,99.90
2019-02-22T06:01:18.952Z,99.90
2019-02-22T06:02:23.672Z,99.90
2019-02-22T06:03:28.575Z,99.90
2019-02-22T06:04:33.135Z,99.90
2019-02-22T06:05:37.730Z,99.90
2019-02-22T06:06:42.348Z,99.90
2019-02-22T06:07:46.953Z,99.90
2019-02-22T06:08:51.736Z,99.90
2019-02-22T06:09:56.432Z,99.90
2019-02-22T06:11:01.114Z,99.90
2019-02-22T06:12:06.512Z,99.90
2019-02-22T06:13:11.232Z,99.90
2019-02-22T06:14:15.786Z,99.90
2019-02-22T06:15:20.470Z,99.90
2019-02-22T06:16:25.217Z,99.90
2019-02-22T06:17:29.859Z,99.90
2019-02-22T06:18:34.587Z,99.90
2019-02-22T06:19:39.178Z,99.90
2019-02-22T06:20:43.841Z,99.90
2019-02-22T06:21:48.548Z,99.90
2019-02-22T06:22:54.396Z,99.90
2019-02-22T06:23:59.056Z,99.90
2019-02-22T06:25:03.740Z,99.90
2019-02-22T06:26:08.418Z,99.90
2019-02-22T06:27:13.331Z,99.90
2019-02-22T06:28:17.978Z,99.90
2019-02-22T06:29:22.699Z,99.90
2019-02-22T06:30:27.323Z,99.90
2019-02-22T06:31:31.946Z,99.90
2019-02-22T06:32:36.574Z,99.90
2019-02-22T06:33:41.177Z,99.90
2019-02-22T06:34:45.940Z,99.90
2019-02-22T06:35:51.096Z,99.90
2019-02-22T06:37:01.813Z,99.90
2019-02-22T06:38:02.719Z,99.90
2019-02-22T06:39:08.189Z,99.90
2019-02-22T06:40:15.474Z,99.90
2019-02-22T06:41:21.672Z,99.90
2019-02-22T06:42:26.754Z,99.90
2019-02-22T06:43:31.383Z,99.90
2019-02-22T06:44:36.027Z,99.90
2019-02-22T06:45:40.652Z,99.90
2019-02-22T06:46:45.265Z,99.90
2019-02-22T06:47:49.914Z,99.90
2019-02-22T06:48:54.588Z,99.90
2019-02-22T06:49:59.112Z,99.90
2019-02-22T06:51:03.871Z,99.90
2019-02-22T06:52:08.462Z,99.90
2019-02-22T06:53:13.037Z,99.90
2019-02-22T06:54:17.600Z,99.90
2019-02-22T06:55:22.192Z,99.90
2019-02-22T06:56:26.837Z,99.90
2019-02-22T06:57:31.414Z,99.90
2019-02-22T06:58:36.136Z,99.90
2019-02-22T06:59:40.727Z,99.90
2019-02-22T07:00:45.379Z,99.90
2019-02-22T07:01:50.232Z,99.90
2019-02-22T07:02:56.039Z,99.90
2019-02-22T07:04:00.659Z,99.90
2019-02-22T07:05:06.659Z,99.90
2019-02-22T07:06:11.279Z,99.90
2019-02-22T07:07:16.015Z,99.90
2019-02-22T07:08:20.612Z,99.90
2019-02-22T07:09:25.319Z,99.90
2019-02-22T07:10:31.593Z,99.90
2019-02-22T07:11:49.681Z,99.90
2019-02-22T07:13:01.077Z,99.90
2019-02-22T07:14:05.666Z,99.90
2019-02-22T07:15:10.485Z,99.90
2019-02-22T07:16:15.205Z,99.90
2019-02-22T07:17:19.858Z,99.90
2019-02-22T07:18:24.481Z,99.90
2019-02-22T07:19:29.063Z,99.90
2019-02-22T07:20:33.706Z,99.90
2019-02-22T07:21:49.364Z,99.90
2019-02-22T07:22:44.646Z,99.90
2019-02-22T07:23:49.310Z,99.90
2019-02-22T07:24:54.068Z,99.90
2019-02-22T07:25:58.734Z,99.90
2019-02-22T07:27:03.466Z,99.90
2019-02-22T07:28:08.371Z,99.90
2019-02-22T07:29:12.977Z,99.90
2019-02-22T07:30:17.628Z,99.90
2019-02-22T07:31:22.435Z,99.90
2019-02-22T07:32:27.459Z,99.90
2019-02-22T07:33:32.247Z,99.90
2019-02-22T07:34:36.882Z,99.90
2019-02-22T07:35:41.523Z,99.90
2019-02-22T07:36:46.163Z,99.90
2019-02-22T07:37:50.737Z,99.90
2019-02-22T07:38:55.347Z,99.90
2019-02-22T07:39:59.999Z,99.90
2019-02-22T07:41:04.693Z,99.90
2019-02-22T07:42:09.276Z,99.90
2019-02-22T07:43:14.019Z,99.90
2019-02-22T07:44:18.661Z,99.90
2019-02-22T07:45:23.373Z,99.90
2019-02-22T07:46:28.143Z,99.90
2019-02-22T07:47:32.776Z,99.90
2019-02-22T07:48:37.407Z,99.90
2019-02-22T07:49:42.003Z,99.90
2019-02-22T07:50:56.975Z,99.90
2019-02-22T07:51:53.457Z,99.90
2019-02-22T07:52:58.083Z,99.90
2019-02-22T07:54:02.692Z,99.90
2019-02-22T07:55:08.316Z,99.90
2019-02-22T07:56:12.992Z,99.90
2019-02-22T07:57:17.602Z,99.90
2019-02-22T07:58:22.215Z,99.90
2019-02-22T07:59:26.839Z,99.90
2019-02-22T08:00:31.551Z,99.90
2019-02-22T08:01:46.772Z,99.90
2019-02-22T08:02:42.494Z,99.90
2019-02-22T08:03:47.180Z,99.90
2019-02-22T08:04:51.819Z,99.90
2019-02-22T08:05:56.485Z,99.90
2019-02-22T08:07:02.193Z,99.90
2019-02-22T08:08:06.789Z,99.90
2019-02-22T08:09:11.447Z,99.90
2019-02-22T08:10:16.423Z,99.90
2019-02-22T08:11:22.681Z,99.90
2019-02-22T08:12:27.248Z,99.90
2019-02-22T08:13:32.035Z,99.90
2019-02-22T08:14:36.650Z,99.90
2019-02-22T08:15:41.316Z,99.90
2019-02-22T08:16:45.929Z,99.90
2019-02-22T08:17:50.552Z,99.90
2019-02-22T08:19:01.580Z,99.90
2019-02-22T08:20:01.708Z,99.90
2019-02-22T08:21:06.421Z,99.90
2019-02-22T08:22:11.063Z,99.90
2019-02-22T08:23:15.929Z,99.90
2019-02-22T08:24:20.555Z,99.90
2019-02-22T08:25:25.159Z,99.90
2019-02-22T08:26:29.799Z,99.90
2019-02-22T08:27:34.446Z,99.90
2019-02-22T08:28:40.237Z,99.90
2019-02-22T08:29:44.802Z,99.90
2019-02-22T08:30:50.399Z,99.90
2019-02-22T08:31:55.068Z,99.90
2019-02-22T08:32:59.674Z,99.90
2019-02-22T08:34:04.340Z,99.90
2019-02-22T08:35:09.153Z,99.90
2019-02-22T08:36:13.762Z,99.90
2019-02-22T08:37:18.347Z,99.90
2019-02-22T08:38:22.948Z,99.90
2019-02-22T08:39:27.540Z,99.90
2019-02-22T08:40:32.503Z,99.90
2019-02-22T08:41:37.105Z,99.90
2019-02-22T08:42:41.743Z,99.90
2019-02-22T08:43:46.339Z,99.90
2019-02-22T08:44:51.022Z,99.90
2019-02-22T08:45:55.667Z,99.90
2019-02-22T08:47:00.332Z,99.90
2019-02-22T08:48:04.946Z,99.90
2019-02-22T08:49:09.672Z,99.90
2019-02-22T08:50:17.366Z,99.90
2019-02-22T08:51:23.225Z,99.90
2019-02-22T08:52:27.824Z,99.90
2019-02-22T08:53:32.572Z,99.90
2019-02-22T08:54:46.594Z,99.90
2019-02-22T08:55:43.423Z,99.90
2019-02-22T08:56:48.195Z,99.90
2019-02-22T08:57:52.805Z,99.90
2019-02-22T08:58:57.663Z,99.90
2019-02-22T09:00:02.348Z,99.90
2019-02-22T09:01:08.680Z,99.90
2019-02-22T09:02:13.277Z,99.90
2019-02-22T09:03:17.996Z,99.90
2019-02-22T09:04:22.763Z,99.90
2019-02-22T09:05:27.466Z,99.90
2019-02-22T09:06:32.160Z,99.90
2019-02-22T09:07:36.779Z,99.90
2019-02-22T09:08:41.339Z,99.90
2019-02-22T09:09:45.889Z,99.90
2019-02-22T09:11:00.186Z,99.90
2019-02-22T09:11:57.743Z,99.90
2019-02-22T09:13:02.580Z,99.90
2019-02-22T09:14:07.232Z,99.90
2019-02-22T09:15:12.328Z,99.90
2019-02-22T09:16:17.019Z,99.90
2019-02-22T09:17:21.694Z,99.90
2019-02-22T09:18:26.295Z,99.90
2019-02-22T09:19:30.888Z,99.90
2019-02-22T09:20:35.531Z,99.90
2019-02-22T09:21:40.144Z,99.90
2019-02-22T09:22:44.751Z,99.90
2019-02-22T09:23:49.425Z,99.90
2019-02-22T09:24:54.124Z,99.90
2019-02-22T09:25:58.811Z,99.90
2019-02-22T09:27:03.432Z,99.90
2019-02-22T09:28:08.083Z,99.90
2019-02-22T09:29:12.670Z,99.90
2019-02-22T09:30:17.332Z,99.90
2019-02-22T09:31:22.174Z,99.90
2019-02-22T09:32:26.912Z,99.90
2019-02-22T09:33:31.500Z,99.80
2019-02-22T09:34:36.071Z,99.90
2019-02-22T09:35:40.723Z,99.80
2019-02-22T09:36:45.360Z,99.90
2019-02-22T09:37:50.055Z,99.90
2019-02-22T09:38:54.660Z,99.90
2019-02-22T09:39:59.284Z,99.70
2019-02-22T09:41:03.901Z,99.40
2019-02-22T09:42:10.925Z,99.30
2019-02-22T09:43:15.788Z,98.90
2019-02-22T09:44:20.500Z,99.10
2019-02-22T09:45:25.190Z,98.90
2019-02-22T09:46:29.860Z,99.50
2019-02-22T09:47:34.415Z,99.40
2019-02-22T09:48:39.062Z,99.00
2019-02-22T09:49:43.927Z,99.00
2019-02-22T09:50:48.611Z,99.40
2019-02-22T09:51:53.213Z,99.80
2019-02-22T09:52:59.370Z,98.60
2019-02-22T09:54:03.980Z,98.10
2019-02-22T09:55:10.118Z,98.20
2019-02-22T09:56:16.066Z,97.80
2019-02-22T09:57:20.666Z,98.20
2019-02-22T09:58:25.353Z,99.20
2019-02-22T09:59:30.022Z,98.30
2019-02-22T10:00:34.704Z,97.10
2019-02-22T10:01:39.364Z,97.30
2019-02-22T10:02:44.928Z,97.00
2019-02-22T10:03:49.788Z,97.20
2019-02-22T10:04:55.619Z,97.70
2019-02-22T10:06:00.438Z,96.80
2019-02-22T10:07:05.110Z,96.20
2019-02-22T10:08:09.679Z,96.50
2019-02-22T10:09:14.292Z,96.20
2019-02-22T10:10:18.913Z,95.90
2019-02-22T10:11:23.800Z,95.90
2019-02-22T10:12:28.481Z,96.00
2019-02-22T10:13:33.103Z,95.90
2019-02-22T10:14:37.693Z,95.80
2019-02-22T10:15:42.279Z,96.10
2019-02-22T10:16:47.131Z,95.80
2019-02-22T10:17:51.846Z,95.60
2019-02-22T10:18:56.430Z,96.30
2019-02-22T10:20:01.793Z,96.40
2019-02-22T10:21:08.063Z,96.70
2019-02-22T10:22:12.747Z,96.50
2019-02-22T10:23:17.331Z,96.60
2019-02-22T10:24:21.908Z,95.90
2019-02-22T10:25:26.500Z,95.20
2019-02-22T10:26:31.137Z,95.30
2019-02-22T10:27:35.832Z,95.10
2019-02-22T10:28:40.458Z,95.00
2019-02-22T10:29:45.103Z,95.30
2019-02-22T10:30:49.795Z,95.20
2019-02-22T10:31:54.390Z,95.20
2019-02-22T10:32:59.063Z,95.60
2019-02-22T10:34:03.648Z,96.00
2019-02-22T10:35:08.558Z,95.30
2019-02-22T10:36:13.135Z,94.50
2019-02-22T10:37:17.698Z,94.70
2019-02-22T10:38:22.417Z,94.60
2019-02-22T10:39:27.026Z,95.50
2019-02-22T10:40:31.739Z,95.00
2019-02-22T10:41:36.414Z,95.00
2019-02-22T10:42:41.956Z,94.70
2019-02-22T10:43:46.607Z,95.20
2019-02-22T10:44:51.212Z,95.40
2019-02-22T10:45:55.818Z,95.40
2019-02-22T10:47:00.421Z,95.90
2019-02-22T10:48:05.072Z,95.00
2019-02-22T10:49:09.705Z,95.00
2019-02-22T10:50:14.284Z,93.30
2019-02-22T10:51:18.989Z,93.70
2019-02-22T10:52:23.643Z,93.60
2019-02-22T10:53:28.207Z,93.10
2019-02-22T10:54:32.873Z,94.30
2019-02-22T10:55:37.465Z,94.50
2019-02-22T10:56:42.109Z,94.50
2019-02-22T10:57:46.766Z,94.10
2019-02-22T10:58:51.344Z,93.60
2019-02-22T10:59:55.932Z,93.60
2019-02-22T11:01:00.529Z,93.70
2019-02-22T11:02:05.211Z,93.50
2019-02-22T11:03:09.878Z,93.60
2019-02-22T11:04:14.478Z,92.90
2019-02-22T11:05:19.063Z,92.80
2019-02-22T11:06:23.731Z,91.40
2019-02-22T11:07:28.324Z,90.90
2019-02-22T11:08:32.914Z,90.30
2019-02-22T11:09:37.573Z,89.80
2019-02-22T11:10:42.191Z,88.40
2019-02-22T11:11:46.806Z,90.10
2019-02-22T11:12:51.420Z,90.70
2019-02-22T11:13:56.157Z,90.70
2019-02-22T11:15:00.806Z,90.40
2019-02-22T11:16:05.753Z,89.20
2019-02-22T11:17:10.388Z,89.00
2019-02-22T11:18:15.011Z,90.00
2019-02-22T11:19:19.618Z,90.60
2019-02-22T11:20:24.734Z,91.00
2019-02-22T11:21:29.313Z,90.50
2019-02-22T11:22:34.055Z,91.00
2019-02-22T11:23:38.659Z,91.20
2019-02-22T11:24:43.306Z,90.50
2019-02-22T11:25:48.065Z,90.70
2019-02-22T11:26:52.917Z,91.30
2019-02-22T11:27:57.513Z,91.10
2019-02-22T11:29:02.210Z,90.90
2019-02-22T11:30:09.256Z,90.90
2019-02-22T11:31:15.060Z,91.20
2019-02-22T11:32:19.754Z,91.10
2019-02-22T11:33:24.466Z,90.90
2019-02-22T11:34:29.131Z,89.80
2019-02-22T11:35:36.819Z,89.70
2019-02-22T11:36:41.390Z,90.50
2019-02-22T11:37:46.048Z,90.60
2019-02-22T11:38:50.692Z,90.20
2019-02-22T11:39:55.291Z,91.40
2019-02-22T11:40:59.904Z,91.10
2019-02-22T11:42:04.753Z,90.50
2019-02-22T11:43:09.359Z,90.60
2019-02-22T11:44:13.918Z,90.40
2019-02-22T11:45:18.547Z,90.20
2019-02-22T11:46:24.659Z,90.90
2019-02-22T11:47:29.237Z,90.80
2019-02-22T11:48:33.926Z,91.40
2019-02-22T11:49:38.487Z,91.00
2019-02-22T11:50:43.078Z,91.10
2019-02-22T11:51:48.070Z,91.10
2019-02-22T11:52:52.968Z,91.10
2019-02-22T11:53:57.707Z,90.90
2019-02-22T11:55:02.563Z,91.30
2019-02-22T11:56:07.696Z,90.80
2019-02-22T11:57:13.119Z,90.80
2019-02-22T11:58:17.916Z,91.10
2019-02-22T11:59:22.663Z,90.60
2019-02-22T12:00:28.679Z,91.30
2019-02-22T12:01:33.479Z,90.60
2019-02-22T12:02:38.072Z,90.90
2019-02-22T12:03:42.730Z,91.60
2019-02-22T12:04:47.343Z,90.40
2019-02-22T12:05:52.082Z,87.70
2019-02-22T12:06:58.120Z,88.30
2019-02-22T12:08:03.675Z,87.70
2019-02-22T12:09:08.827Z,86.70
2019-02-22T12:10:14.413Z,87.30
2019-02-22T12:11:19.036Z,88.30
2019-02-22T12:12:23.741Z,87.10
2019-02-22T12:13:28.415Z,87.10
2019-02-22T12:14:33.085Z,87.40
2019-02-22T12:15:37.659Z,88.30
2019-02-22T12:16:42.295Z,87.30
2019-02-22T12:17:46.970Z,87.30
2019-02-22T12:18:51.602Z,86.10
2019-02-22T12:19:56.303Z,86.80
2019-02-22T12:21:00.920Z,85.80
2019-02-22T12:22:05.637Z,84.80
2019-02-22T12:23:10.383Z,86.00
2019-02-22T12:24:19.819Z,84.40
2019-02-22T12:25:24.670Z,83.60
2019-02-22T12:26:31.860Z,79.60
2019-02-22T12:27:35.637Z,79.80
2019-02-22T12:28:40.279Z,80.90
2019-02-22T12:29:45.001Z,81.10
2019-02-22T12:30:49.608Z,80.10
2019-02-22T12:31:54.202Z,81.10
2019-02-22T12:33:07.692Z,80.30
2019-02-22T12:34:12.415Z,79.90
2019-02-22T12:35:17.147Z,80.80
2019-02-22T12:36:21.734Z,79.70
2019-02-22T12:37:26.664Z,78.90
2019-02-22T12:38:32.376Z,79.70
2019-02-22T12:39:37.011Z,79.60
2019-02-22T12:40:41.704Z,79.40
2019-02-22T12:41:46.464Z,80.90
2019-02-22T12:42:51.165Z,82.10
2019-02-22T12:43:55.840Z,82.10
2019-02-22T12:45:03.105Z,81.60
2019-02-22T12:46:06.788Z,83.00
2019-02-22T12:47:11.348Z,83.60
2019-02-22T12:48:15.972Z,84.00
2019-02-22T12:49:21.690Z,83.70
2019-02-22T12:50:26.398Z,83.70
2019-02-22T12:51:31.003Z,83.90
2019-02-22T12:52:35.542Z,85.30
2019-02-22T12:53:40.135Z,84.60
2019-02-22T12:54:44.770Z,84.40
2019-02-22T12:55:49.471Z,86.80
2019-02-22T12:56:57.527Z,87.10
2019-02-22T12:58:01.630Z,87.10
2019-02-22T12:59:06.355Z,87.00
2019-02-22T13:00:12.357Z,86.80
2019-02-22T13:01:17.096Z,86.50
2019-02-22T13:02:21.839Z,86.40
2019-02-22T13:03:26.661Z,83.30
2019-02-22T13:04:31.283Z,81.20
2019-02-22T13:05:35.972Z,80.30
2019-02-22T13:06:40.598Z,78.40
2019-02-22T13:07:45.364Z,77.60
2019-02-22T13:08:50.069Z,78.00
2019-02-22T13:09:54.686Z,78.60
2019-02-22T13:10:59.418Z,80.90
2019-02-22T13:12:13.632Z,80.60
2019-02-22T13:13:10.503Z,80.30
2019-02-22T13:14:15.528Z,82.30
2019-02-22T13:15:20.185Z,78.90
2019-02-22T13:16:25.225Z,77.60
2019-02-22T13:17:31.035Z,76.20
2019-02-22T13:18:36.004Z,77.80
2019-02-22T13:19:40.746Z,78.50
2019-02-22T13:20:45.342Z,78.40
2019-02-22T13:21:49.984Z,77.30
2019-02-22T13:22:55.012Z,74.30
2019-02-22T13:23:59.677Z,73.40
2019-02-22T13:25:04.596Z,73.60
2019-02-22T13:26:09.261Z,73.40
2019-02-22T13:27:13.983Z,74.30
2019-02-22T13:28:19.635Z,75.70
2019-02-22T13:29:24.389Z,76.80
2019-02-22T13:30:29.052Z,78.90
2019-02-22T13:31:33.825Z,81.10
2019-02-22T13:32:38.481Z,79.90
2019-02-22T13:33:46.149Z,80.00
2019-02-22T13:34:50.844Z,80.50
2019-02-22T13:35:55.556Z,79.20
2019-02-22T13:37:00.198Z,79.60
2019-02-22T13:38:04.962Z,79.20
2019-02-22T13:39:09.608Z,79.60
2019-02-22T13:40:14.686Z,79.80
2019-02-22T13:41:19.380Z,79.70
2019-02-22T13:42:24.107Z,79.90
2019-02-22T13:43:28.803Z,80.30
2019-02-22T13:44:33.439Z,79.80
2019-02-22T13:45:38.249Z,78.90
2019-02-22T13:46:42.841Z,78.50
2019-02-22T13:47:48.491Z,78.10
2019-02-22T13:48:53.138Z,79.50
2019-02-22T13:49:59.532Z,77.90
2019-02-22T13:51:04.325Z,78.60
2019-02-22T13:52:09.241Z,78.40
2019-02-22T13:53:13.928Z,77.90
2019-02-22T13:54:18.623Z,79.60
2019-02-22T13:55:23.419Z,79.70
2019-02-22T13:56:29.941Z,78.00